Time;durP1;ratioP1;P1;durP2;ratioP2;P2;SDS_P1;SDS_P2;PMS_P1;PMS_P2;Temp;Humidity;BMP_temperature;BMP_pressure;BME280_temperature;BME280_humidity;BME280_pressure;Samples;Min_cycle;Max_cycle;Signal;HPM_P1;HPM_P2
2023/05/07 00:02:00;;;;;;;;;;;;;;;4.03;70.44;102246.98;108952;1257;74182;-85
2023/05/07 00:04:36;;;;;;;;;;;;;;;3.98;70.30;102243.81;108757;1257;67494;-85
2023/05/07 00:07:03;;;;;;;;;;;;;;;3.92;70.60;102246.17;107673;1261;124223;-84
2023/05/07 00:09:30;;;;;;;;;;;;;;;3.88;70.40;102244.13;107673;1261;62191;-83
2023/05/07 00:11:57;;;;;;;;;;;;;;;3.84;70.55;102246.23;107635;1258;124443;-82
2023/05/07 00:14:24;;;;;;;;;;;;;;;3.80;70.53;102246.66;108877;1260;74225;-82
2023/05/07 00:16:51;;;;;;;;;;;;;;;3.76;70.63;102248.55;108731;1257;268007;-80
2023/05/07 00:19:18;;;;;;;;;;;;;;;3.71;70.66;102246.45;108741;1258;124845;-80
2023/05/07 00:21:46;;;;;;;;;;;;;;;3.66;70.80;102249.77;108865;1257;60412;-81
2023/05/07 00:24:13;;;;;;;;;;;;;;;3.62;70.77;102249.62;108685;1257;124694;-80
2023/05/07 00:26:40;;;;;;;;;;;;;;;3.58;71.03;102253.80;108892;1258;75103;-80
2023/05/07 00:29:06;;;;;;;;;;;;;;;3.54;71.08;102252.42;108889;1257;65765;-81
2023/05/07 00:31:33;;;;;;;;;;;;;;;3.50;70.99;102255.48;108893;1258;72478;-82
2023/05/07 00:34:00;;;;;;;;;;;;;;;3.46;70.85;102256.67;108678;1261;60237;-82
2023/05/07 00:36:28;;;;;;;;;;;;;;;3.42;71.09;102256.02;108832;1257;124270;-81
2023/05/07 00:38:56;;;;;;;;;;;;;;;3.39;71.14;102261.88;108412;1257;75955;-82
2023/05/07 00:41:24;;;;;;;;;;;;;;;3.36;71.18;102260.59;107554;1263;125014;-82
2023/05/07 00:43:51;;;;;;;;;;;;;;;3.32;71.20;102260.46;107473;1258;72499;-82
2023/05/07 00:46:20;;;;;;;;;;;;;;;3.28;71.14;102267.45;107284;1258;62211;-84
2023/05/07 00:48:48;;;;;;;;;;;;;;;3.24;71.34;102269.75;107275;1257;124891;-83
2023/05/07 00:51:15;;;;;;;;;;;;;;;3.21;71.30;102268.10;107200;1258;74192;-83
2023/05/07 00:53:42;;;;;;;;;;;;;;;3.20;71.42;102268.84;107501;1257;125677;-81
2023/05/07 00:56:09;;;;;;;;;;;;;;;3.19;71.34;102270.51;108164;1257;71197;-81
2023/05/07 00:58:36;;;;;;;;;;;;;;;3.18;71.57;102273.93;108057;1257;60290;-83
2023/05/07 01:01:03;;;;;;;;;;;;;;;3.17;71.49;102276.77;107626;1260;125339;-82
2023/05/07 01:03:30;;;;;;;;;;;;;;;3.16;71.37;102282.12;108896;1256;75595;-83
2023/05/07 01:05:57;;;;;;;;;;;;;;;3.16;71.36;102284.02;108690;1257;124947;-82
2023/05/07 01:08:26;;;;;;;;;;;;;;;3.16;71.28;102284.34;108701;1257;72004;-82
2023/05/07 01:10:55;;;;;;;;;;;;;;;3.16;71.45;102285.23;108833;1256;60131;-82
2023/05/07 01:13:22;;;;;;;;;;;;;;;3.17;71.30;102285.45;108736;1257;124796;-81
2023/05/07 01:15:49;;;;;;;;;;;;;;;3.17;71.38;102285.67;108706;1263;75864;-83
2023/05/07 01:18:16;;;;;;;;;;;;;;;3.17;71.40;102288.80;108755;1257;125279;-81
2023/05/07 01:20:43;;;;;;;;;;;;;;;3.18;71.12;102290.75;108905;1257;70993;-83
2023/05/07 01:23:10;;;;;;;;;;;;;;;3.18;71.12;102289.84;108783;1257;126304;-81
2023/05/07 01:25:37;;;;;;;;;;;;;;;3.18;71.18;102292.31;108910;1257;60169;-81
2023/05/07 01:28:05;;;;;;;;;;;;;;;3.18;71.03;102291.45;108932;1257;76020;-82
2023/05/07 01:30:32;;;;;;;;;;;;;;;3.18;71.00;102291.24;108654;1257;125625;-82
2023/05/07 01:33:09;;;;;;;;;;;;;;;3.18;70.90;102294.02;108792;1258;71392;-83
2023/05/07 01:35:38;;;;;;;;;;;;;;;3.18;70.93;102295.39;108692;1257;125426;-81
2023/05/07 01:38:05;;;;;;;;;;;;;;;3.16;70.85;102297.48;108804;1257;59984;-83
2023/05/07 01:40:34;;;;;;;;;;;;;;;3.14;70.73;102296.45;108787;1261;73966;-83
2023/05/07 01:43:01;;;;;;;;;;;;;;;3.13;70.74;102300.92;108694;1257;125397;-82
2023/05/07 01:45:29;;;;;;;;;;;;;;;3.12;70.74;102301.89;108708;1263;72440;-81
2023/05/07 01:47:57;;;;;;;;;;;;;;;3.12;70.97;102303.45;108792;1257;125712;-83
2023/05/07 01:50:24;;;;;;;;;;;;;;;3.11;70.73;102305.31;108785;1264;60124;-83
2023/05/07 01:52:51;;;;;;;;;;;;;;;3.10;70.68;102304.85;107915;1257;75241;-83
2023/05/07 01:55:19;;;;;;;;;;;;;;;3.08;70.73;102302.80;107438;1259;125683;-82
2023/05/07 01:57:46;;;;;;;;;;;;;;;3.06;70.63;102309.75;107736;1256;72953;-83
2023/05/07 02:00:13;;;;;;;;;;;;;;;3.05;70.76;102308.80;107420;1262;126533;-83
2023/05/07 02:02:40;;;;;;;;;;;;;;;3.04;70.95;102311.16;107454;1257;62300;-83
2023/05/07 02:05:07;;;;;;;;;;;;;;;3.04;70.65;102309.42;107395;1258;74660;-83
2023/05/07 02:07:34;;;;;;;;;;;;;;;3.03;70.68;102313.67;107590;1256;125534;-84
2023/05/07 02:10:03;;;;;;;;;;;;;;;3.03;70.78;102321.51;107694;1257;72824;-84
2023/05/07 02:12:30;;;;;;;;;;;;;;;3.01;70.58;102319.94;107568;1257;124903;-81
2023/05/07 02:14:57;;;;;;;;;;;;;;;3.00;70.56;102321.42;107816;1257;60939;-84
2023/05/07 02:17:25;;;;;;;;;;;;;;;2.99;70.57;102319.95;107739;1256;125039;-84
2023/05/07 02:19:52;;;;;;;;;;;;;;;2.98;70.57;102324.35;107783;1260;67120;-83
2023/05/07 02:22:19;;;;;;;;;;;;;;;2.96;70.60;102324.55;107857;1260;71378;-84
2023/05/07 02:24:47;;;;;;;;;;;;;;;2.93;70.65;102324.69;107597;1257;125546;-83
2023/05/07 02:27:14;;;;;;;;;;;;;;;2.91;70.46;102326.46;107702;1257;60896;-81
2023/05/07 02:29:41;;;;;;;;;;;;;;;2.88;70.54;102331.56;107621;1260;125195;-81
2023/05/07 02:32:08;;;;;;;;;;;;;;;2.87;70.57;102335.98;107712;1257;67068;-83
2023/05/07 02:34:35;;;;;;;;;;;;;;;2.85;70.42;102334.23;108681;1258;71641;-82
2023/05/07 02:37:02;;;;;;;;;;;;;;;2.83;70.48;102335.68;108791;1256;125443;-82
2023/05/07 02:39:29;;;;;;;;;;;;;;;2.79;70.40;102341.08;108993;1257;60022;-83
2023/05/07 02:41:56;;;;;;;;;;;;;;;2.77;70.53;102343.10;108876;1256;125368;-83
2023/05/07 02:44:23;;;;;;;;;;;;;;;2.76;70.67;102341.01;108908;1256;67832;-83
2023/05/07 02:46:50;;;;;;;;;;;;;;;2.74;70.62;102338.23;108856;1257;73243;-83
2023/05/07 02:49:17;;;;;;;;;;;;;;;2.73;70.68;102339.73;108846;1257;124739;-83
2023/05/07 02:51:44;;;;;;;;;;;;;;;2.71;70.82;102337.98;108940;1256;59860;-83
2023/05/07 02:54:12;;;;;;;;;;;;;;;2.70;70.69;102342.79;107986;1260;124130;-84
2023/05/07 02:56:40;;;;;;;;;;;;;;;2.68;70.73;102340.50;107457;1257;64545;-84
2023/05/07 02:59:07;;;;;;;;;;;;;;;2.66;70.73;102339.27;108213;1257;71209;-83
2023/05/07 03:01:34;;;;;;;;;;;;;;;2.64;70.72;102339.63;107963;1257;124661;-81
2023/05/07 03:04:01;;;;;;;;;;;;;;;2.63;70.88;102342.29;107338;1256;61004;-82
2023/05/07 03:06:28;;;;;;;;;;;;;;;2.63;70.88;102344.80;107172;1257;124729;-82
2023/05/07 03:08:55;;;;;;;;;;;;;;;2.65;70.97;102345.46;107259;1262;67657;-81
2023/05/07 03:11:22;;;;;;;;;;;;;;;2.65;70.79;102347.73;107361;1256;125045;-82
2023/05/07 03:13:49;;;;;;;;;;;;;;;2.66;70.75;102352.44;107788;1260;60639;-81
2023/05/07 03:16:16;;;;;;;;;;;;;;;2.67;70.99;102351.82;107668;1256;62079;-84
2023/05/07 03:18:45;;;;;;;;;;;;;;;2.68;70.89;102353.69;107522;1261;124504;-84
2023/05/07 03:21:13;;;;;;;;;;;;;;;2.70;70.80;102354.91;107769;1258;68352;-82
2023/05/07 03:23:39;;;;;;;;;;;;;;;2.74;71.04;102359.23;107447;1257;124798;-81
2023/05/07 03:26:06;;;;;;;;;;;;;;;2.81;70.96;102359.95;107734;1260;60712;-81
2023/05/07 03:28:33;;;;;;;;;;;;;;;2.88;70.98;102362.81;107691;1257;61999;-82
2023/05/07 03:31:02;;;;;;;;;;;;;;;2.99;71.10;102365.71;107541;1257;124243;-82
2023/05/07 03:33:29;;;;;;;;;;;;;;;3.15;71.20;102367.50;107797;1256;67639;-82
2023/05/07 03:35:58;;;;;;;;;;;;;;;3.39;71.38;102364.44;107645;1260;124877;-82
2023/05/07 03:38:25;;;;;;;;;;;;;;;3.84;71.60;102365.17;107881;1260;62241;-82
2023/05/07 03:40:52;;;;;;;;;;;;;;;4.63;72.09;102365.65;107690;1256;60207;-82
2023/05/07 03:43:19;;;;;;;;;;;;;;;6.06;72.79;102365.25;107432;1257;124425;-82
2023/05/07 03:45:46;;;;;;;;;;;;;;;7.69;72.08;102364.79;107796;1257;67496;-83
2023/05/07 03:48:13;;;;;;;;;;;;;;;9.23;70.92;102361.02;107458;1260;125543;-83
2023/05/07 03:50:40;;;;;;;;;;;;;;;10.67;69.45;102365.70;107554;1256;60354;-83
2023/05/07 03:53:07;;;;;;;;;;;;;;;11.93;67.15;102354.70;107347;1257;61289;-83
2023/05/07 03:55:42;;;;;;;;;;;;;;;13.05;65.74;102353.85;107505;1256;74318;-83
2023/05/07 03:58:09;;;;;;;;;;;;;;;14.25;63.77;102351.22;107573;1260;67060;-84
2023/05/07 04:00:40;;;;;;;;;;;;;;;15.19;61.79;102349.06;107330;1260;124578;-85
2023/05/07 04:03:07;;;;;;;;;;;;;;;15.94;59.86;102347.81;107239;1262;62016;-85
2023/05/07 04:05:34;;;;;;;;;;;;;;;16.78;58.90;102348.45;107397;1256;125106;-82
2023/05/07 04:08:02;;;;;;;;;;;;;;;17.71;57.56;102346.02;107454;1257;76017;-85
2023/05/07 04:10:30;;;;;;;;;;;;;;;18.64;56.38;102351.91;107180;1256;65811;-85
2023/05/07 04:12:57;;;;;;;;;;;;;;;19.52;54.78;102349.02;107234;1256;124578;-83
2023/05/07 04:15:26;;;;;;;;;;;;;;;20.22;52.91;102342.05;107380;1263;62513;-83
2023/05/07 04:17:53;;;;;;;;;;;;;;;20.92;52.07;102346.98;107272;1256;125126;-83
2023/05/07 04:20:20;;;;;;;;;;;;;;;21.69;50.80;102345.67;108757;1256;74107;-84
2023/05/07 04:22:48;;;;;;;;;;;;;;;22.43;49.48;102346.63;108820;1259;67501;-83
2023/05/07 04:25:15;;;;;;;;;;;;;;;23.05;48.09;102348.79;108737;1256;125236;-83
2023/05/07 04:27:42;;;;;;;;;;;;;;;23.66;46.82;102351.87;108802;1257;60124;-83
2023/05/07 04:30:11;;;;;;;;;;;;;;;24.19;45.62;102352.71;108839;1258;125026;-83
2023/05/07 04:32:39;;;;;;;;;;;;;;;24.78;44.58;102354.09;108782;1259;74539;-83
2023/05/07 04:35:06;;;;;;;;;;;;;;;25.22;43.29;102357.28;108914;1256;65860;-83
2023/05/07 04:37:33;;;;;;;;;;;;;;;25.54;42.25;102360.72;108855;1256;124316;-83
2023/05/07 04:40:00;;;;;;;;;;;;;;;25.96;41.47;102363.79;108902;1257;60191;-83
2023/05/07 04:42:27;;;;;;;;;;;;;;;26.53;40.73;102365.50;108712;1257;124600;-83
2023/05/07 04:44:54;;;;;;;;;;;;;;;26.97;39.63;102366.40;108180;1256;75518;-84
2023/05/07 04:47:22;;;;;;;;;;;;;;;27.31;39.11;102366.69;107535;1256;125226;-81
2023/05/07 04:49:48;;;;;;;;;;;;;;;27.76;38.18;102365.42;107556;1256;64085;-84
2023/05/07 04:52:16;;;;;;;;;;;;;;;28.18;37.65;102367.05;107651;1257;60780;-84
2023/05/07 04:54:46;;;;;;;;;;;;;;;28.65;36.86;102372.81;107399;1262;125322;-83
2023/05/07 04:57:13;;;;;;;;;;;;;;;28.97;36.03;102376.70;107319;1257;66612;-83
2023/05/07 04:59:40;;;;;;;;;;;;;;;29.32;35.44;102377.05;107373;1257;124618;-84
2023/05/07 05:02:08;;;;;;;;;;;;;;;29.68;34.66;102376.40;107682;1257;64195;-84
2023/05/07 05:04:35;;;;;;;;;;;;;;;29.98;34.02;102376.96;107637;1256;60504;-84
2023/05/07 05:07:03;;;;;;;;;;;;;;;30.33;33.26;102380.43;107722;1260;125101;-82
2023/05/07 05:09:35;;;;;;;;;;;;;;;30.67;32.69;102377.13;107727;1256;66945;-82
2023/05/07 05:12:02;;;;;;;;;;;;;;;31.05;32.24;102377.66;107697;1257;124523;-82
2023/05/07 05:14:35;;;;;;;;;;;;;;;31.38;31.44;102379.76;107803;1259;64609;-83
2023/05/07 05:17:02;;;;;;;;;;;;;;;31.53;30.72;102380.52;107872;1260;61042;-81
2023/05/07 05:19:29;;;;;;;;;;;;;;;31.42;29.86;102382.50;107876;1256;124435;-82
2023/05/07 05:21:56;;;;;;;;;;;;;;;31.05;29.25;102387.82;107801;1256;65671;-84
2023/05/07 05:24:23;;;;;;;;;;;;;;;31.09;29.40;102388.05;107327;1259;124399;-83
2023/05/07 05:26:54;;;;;;;;;;;;;;;31.40;28.57;102387.30;107828;1256;63923;-85
2023/05/07 05:29:21;;;;;;;;;;;;;;;31.21;27.98;102387.44;107784;1256;124766;-83
2023/05/07 05:31:55;;;;;;;;;;;;;;;30.46;27.53;102389.38;107585;1256;60495;-85
2023/05/07 05:34:22;;;;;;;;;;;;;;;28.56;26.74;102389.69;107498;1257;66895;-88
2023/05/07 05:36:49;;;;;;;;;;;;;;;25.89;26.60;102394.55;107433;1256;124980;-84
2023/05/07 05:39:16;;;;;;;;;;;;;;;23.53;27.27;102398.27;107631;1257;72847;-84
2023/05/07 05:41:54;;;;;;;;;;;;;;;21.54;28.01;102405.04;107313;1256;124917;-86
2023/05/07 05:44:21;;;;;;;;;;;;;;;19.90;28.99;102414.70;107634;1256;61400;-84
2023/05/07 05:46:49;;;;;;;;;;;;;;;18.68;29.58;102414.92;107700;1257;75429;-82
2023/05/07 05:49:16;;;;;;;;;;;;;;;17.59;30.37;102420.30;107416;1256;124758;-84
2023/05/07 05:51:43;;;;;;;;;;;;;;;16.70;31.09;102422.38;107676;1256;71753;-83
2023/05/07 05:54:10;;;;;;;;;;;;;;;16.05;31.59;102426.39;107709;1256;125112;-83
2023/05/07 05:56:37;;;;;;;;;;;;;;;15.33;32.08;102427.16;107627;1257;61959;-83
2023/05/07 05:59:05;;;;;;;;;;;;;;;14.59;32.30;102431.54;107503;1256;74112;-81
2023/05/07 06:01:32;;;;;;;;;;;;;;;13.85;33.03;102430.58;107428;1257;124854;-82
2023/05/07 06:03:59;;;;;;;;;;;;;;;13.40;33.60;102439.92;107839;1256;71740;-82
2023/05/07 06:06:26;;;;;;;;;;;;;;;12.97;33.97;102436.72;107602;1257;125077;-81
2023/05/07 06:08:53;;;;;;;;;;;;;;;12.69;34.48;102441.52;107706;1257;60765;-81
2023/05/07 06:11:20;;;;;;;;;;;;;;;12.40;34.88;102443.59;107642;1256;125207;-81
2023/05/07 06:13:48;;;;;;;;;;;;;;;12.19;35.27;102446.34;107832;1259;67056;-80
2023/05/07 06:16:15;;;;;;;;;;;;;;;12.05;35.67;102447.14;107827;1257;72705;-85
2023/05/07 06:18:42;;;;;;;;;;;;;;;11.91;35.94;102444.70;107708;1260;124961;-82
2023/05/07 06:21:10;;;;;;;;;;;;;;;11.79;36.27;102442.91;107776;1260;61968;-86
2023/05/07 06:23:37;;;;;;;;;;;;;;;11.70;36.52;102451.45;108805;1259;125284;-81
2023/05/07 06:26:03;;;;;;;;;;;;;;;11.55;36.55;102448.62;108796;1257;67103;-81
2023/05/07 06:28:35;;;;;;;;;;;;;;;11.43;36.83;102452.77;108125;1256;71376;-84
2023/05/07 06:31:12;;;;;;;;;;;;;;;11.31;37.08;102454.13;107683;1256;125311;-81
2023/05/07 06:33:39;;;;;;;;;;;;;;;11.24;37.58;102455.85;107452;1256;62850;-84
2023/05/07 06:36:06;;;;;;;;;;;;;;;11.20;37.62;102454.42;107366;1256;125027;-82
2023/05/07 06:38:33;;;;;;;;;;;;;;;11.14;37.92;102456.64;107478;1256;66040;-82
2023/05/07 06:41:00;;;;;;;;;;;;;;;11.08;38.10;102460.55;107563;1256;71008;-81
2023/05/07 06:43:27;;;;;;;;;;;;;;;11.04;38.38;102464.92;107645;1260;124359;-83
2023/05/07 06:45:54;;;;;;;;;;;;;;;11.00;38.66;102461.17;107693;1259;61632;-81
2023/05/07 06:48:21;;;;;;;;;;;;;;;10.96;38.87;102463.45;107734;1256;124781;-81
2023/05/07 06:50:49;;;;;;;;;;;;;;;10.95;39.07;102465.33;108016;1256;66663;-83
2023/05/07 06:53:16;;;;;;;;;;;;;;;10.92;39.14;102468.84;107959;1256;125262;-83
2023/05/07 06:55:43;;;;;;;;;;;;;;;10.88;39.35;102464.44;107861;1257;60453;-84
2023/05/07 06:58:16;;;;;;;;;;;;;;;10.91;39.68;102468.09;107606;1257;62060;-86
2023/05/07 07:00:44;;;;;;;;;;;;;;;10.95;39.89;102469.89;107729;1257;124680;-82
2023/05/07 07:03:11;;;;;;;;;;;;;;;10.99;39.97;102470.27;107997;1256;67622;-81
2023/05/07 07:05:41;;;;;;;;;;;;;;;11.03;39.92;102472.61;108569;1257;125238;-82
2023/05/07 07:08:08;;;;;;;;;;;;;;;11.07;39.86;102469.46;108803;1256;60143;-82
2023/05/07 07:10:35;;;;;;;;;;;;;;;11.11;39.71;102468.08;108580;1256;60592;-90
2023/05/07 07:13:02;;;;;;;;;;;;;;;11.16;39.90;102472.00;107127;1257;124953;-85
2023/05/07 07:15:29;;;;;;;;;;;;;;;11.16;39.87;102471.84;107384;1256;65540;-81
2023/05/07 07:17:56;;;;;;;;;;;;;;;11.17;39.87;102474.70;107449;1256;127729;-82
2023/05/07 07:20:23;;;;;;;;;;;;;;;11.21;40.08;102477.52;107542;1256;61890;-84
2023/05/07 07:22:50;;;;;;;;;;;;;;;11.23;39.89;102477.61;107623;1259;61945;-85
2023/05/07 07:25:18;;;;;;;;;;;;;;;11.20;39.65;102477.67;107489;1256;125406;-84
2023/05/07 07:27:57;;;;;;;;;;;;;;;11.20;39.67;102483.60;107544;1256;67624;-87
2023/05/07 07:30:26;;;;;;;;;;;;;;;11.21;39.73;102478.02;107214;1256;125261;-88
2023/05/07 07:32:53;;;;;;;;;;;;;;;11.21;39.72;102478.93;107674;1257;62073;-87
2023/05/07 07:35:20;;;;;;;;;;;;;;;11.21;39.92;102478.91;107392;1259;124932;-86
2023/05/07 07:37:49;;;;;;;;;;;;;;;11.22;39.90;102480.08;107595;1256;75889;-88
2023/05/07 07:40:17;;;;;;;;;;;;;;;11.23;40.06;102478.88;107438;1257;65642;-83
2023/05/07 07:42:44;;;;;;;;;;;;;;;11.24;39.72;102480.16;107504;1257;124543;-84
2023/05/07 07:45:12;;;;;;;;;;;;;;;11.27;39.60;102477.30;107785;1256;61555;-84
2023/05/07 07:47:39;;;;;;;;;;;;;;;11.32;39.79;102478.27;107847;1256;124824;-84
2023/05/07 07:50:07;;;;;;;;;;;;;;;11.42;39.90;102478.39;107405;1259;76402;-86
2023/05/07 07:52:34;;;;;;;;;;;;;;;11.52;39.96;102480.47;107595;1256;65804;-88
2023/05/07 07:55:03;;;;;;;;;;;;;;;11.62;39.82;102481.33;107265;1256;124822;-84
2023/05/07 07:57:30;;;;;;;;;;;;;;;11.71;39.67;102483.83;107651;1257;62045;-85
2023/05/07 07:59:57;;;;;;;;;;;;;;;11.78;39.36;102477.64;107442;1256;124840;-84
2023/05/07 08:02:25;;;;;;;;;;;;;;;11.81;39.36;102474.80;107720;1257;75144;-84
2023/05/07 08:04:54;;;;;;;;;;;;;;;11.87;39.40;102474.58;107434;1256;65749;-86
2023/05/07 08:07:22;;;;;;;;;;;;;;;11.91;39.18;102470.58;107078;1257;125195;-87
2023/05/07 08:09:49;;;;;;;;;;;;;;;11.96;39.10;102466.39;107254;1260;60812;-85
2023/05/07 08:12:16;;;;;;;;;;;;;;;12.03;38.86;102470.09;107122;1256;124637;-85
2023/05/07 08:14:43;;;;;;;;;;;;;;;12.08;38.53;102469.41;107402;1261;75483;-84
2023/05/07 08:17:10;;;;;;;;;;;;;;;12.09;38.03;102472.61;107604;1257;67482;-82
2023/05/07 08:19:37;;;;;;;;;;;;;;;12.12;37.68;102465.37;107692;1256;71853;-88
2023/05/07 08:22:06;;;;;;;;;;;;;;;12.16;37.73;102467.33;107628;1256;60546;-86
2023/05/07 08:24:33;;;;;;;;;;;;;;;12.24;37.59;102465.38;107549;1257;124461;-84
2023/05/07 08:27:00;;;;;;;;;;;;;;;12.29;37.49;102464.05;107495;1257;75945;-87
2023/05/07 08:29:29;;;;;;;;;;;;;;;12.32;37.47;102464.52;107527;1257;124988;-86
2023/05/07 08:32:02;;;;;;;;;;;;;;;12.37;37.25;102464.08;107571;1256;72681;-85
2023/05/07 08:34:37;;;;;;;;;;;;;;;12.43;37.20;102465.90;107362;1263;60130;-83
2023/05/07 08:37:19;;;;;;;;;;;;;;;12.51;37.02;102465.73;107293;1256;124484;-90
2023/05/07 08:39:54;;;;;;;;;;;;;;;12.60;37.00;102468.80;107352;1257;75464;-90
2023/05/07 08:42:23;;;;;;;;;;;;;;;12.69;36.71;102468.27;107531;1257;124704;-85
2023/05/07 08:44:52;;;;;;;;;;;;;;;12.68;36.46;102470.20;107753;1256;71381;-84
2023/05/07 08:47:20;;;;;;;;;;;;;;;12.62;36.12;102470.61;108030;1256;124697;-84
2023/05/07 08:49:57;;;;;;;;;;;;;;;12.55;36.04;102464.34;108040;1256;60160;-85
2023/05/07 08:52:25;;;;;;;;;;;;;;;12.58;36.05;102462.52;107969;1256;74497;-86
2023/05/07 08:54:52;;;;;;;;;;;;;;;12.63;36.14;102462.95;107772;1262;124487;-87
2023/05/07 08:57:20;;;;;;;;;;;;;;;12.72;36.27;102462.77;107552;1257;70634;-89
2023/05/07 08:59:50;;;;;;;;;;;;;;;12.79;35.99;102459.21;107482;1257;124910;-86
2023/05/07 09:02:23;;;;;;;;;;;;;;;12.89;35.70;102467.91;108147;1256;62038;-86
2023/05/07 09:04:53;;;;;;;;;;;;;;;12.96;35.27;102467.01;108119;1257;74454;-87
2023/05/07 09:07:20;;;;;;;;;;;;;;;12.99;34.99;102469.41;108009;1256;124958;-85
2023/05/07 09:09:47;;;;;;;;;;;;;;;13.03;34.76;102466.95;108231;1256;72721;-83
2023/05/07 09:12:14;;;;;;;;;;;;;;;13.03;34.59;102465.16;107705;1260;124736;-86
2023/05/07 09:14:41;;;;;;;;;;;;;;;13.05;34.39;102462.96;107513;1257;62153;-88
2023/05/07 09:17:08;;;;;;;;;;;;;;;13.08;34.33;102466.77;107419;1257;75480;-83
2023/05/07 09:19:35;;;;;;;;;;;;;;;13.12;34.27;102467.13;107287;1256;124692;-88
2023/05/07 09:22:02;;;;;;;;;;;;;;;13.14;34.13;102467.58;107615;1257;71400;-83
2023/05/07 09:24:33;;;;;;;;;;;;;;;13.17;34.14;102477.06;107545;1256;125660;-89
2023/05/07 09:27:01;;;;;;;;;;;;;;;13.23;33.91;102473.23;107492;1256;62066;-84
2023/05/07 09:29:37;;;;;;;;;;;;;;;13.28;33.87;102468.69;107053;1262;124922;-90
2023/05/07 09:32:07;;;;;;;;;;;;;;;13.34;33.89;102470.92;107714;1259;65856;-86
2023/05/07 09:34:41;;;;;;;;;;;;;;;13.39;33.99;102470.77;107127;1258;72943;-89
2023/05/07 09:37:10;;;;;;;;;;;;;;;13.46;33.90;102466.60;107163;1256;125080;-85
2023/05/07 09:39:52;;;;;;;;;;;;;;;13.51;33.99;102462.61;107186;1257;62160;-84
2023/05/07 09:42:26;;;;;;;;;;;;;;;13.58;33.96;102465.89;107139;1256;124498;-84
2023/05/07 09:44:53;;;;;;;;;;;;;;;13.59;33.66;102465.23;107261;1262;67670;-83
2023/05/07 09:47:21;;;;;;;;;;;;;;;13.57;33.57;102468.67;107259;1256;124646;-83
2023/05/07 09:49:49;;;;;;;;;;;;;;;13.57;33.58;102470.95;107510;1256;62051;-84
2023/05/07 09:52:16;;;;;;;;;;;;;;;13.59;33.42;102473.00;107519;1257;60913;-83
2023/05/07 09:54:44;;;;;;;;;;;;;;;13.58;33.55;102475.23;107379;1256;124710;-83
2023/05/07 09:57:11;;;;;;;;;;;;;;;13.54;34.46;102471.89;107769;1256;67065;-84
2023/05/07 09:59:39;;;;;;;;;;;;;;;13.47;33.95;102467.90;107589;1256;124938;-84
2023/05/07 10:02:06;;;;;;;;;;;;;;;13.50;33.78;102471.55;107608;1256;60674;-84
2023/05/07 10:04:33;;;;;;;;;;;;;;;13.53;33.85;102473.98;107563;1256;62803;-84
2023/05/07 10:07:00;;;;;;;;;;;;;;;13.59;34.47;102480.94;107508;1256;124985;-84
2023/05/07 10:09:27;;;;;;;;;;;;;;;13.58;34.92;102484.56;107559;1257;68087;-84
2023/05/07 10:11:54;;;;;;;;;;;;;;;13.52;35.13;102486.45;107580;1256;124594;-87
2023/05/07 10:14:21;;;;;;;;;;;;;;;13.55;35.23;102486.20;107437;1257;62117;-84
2023/05/07 10:16:48;;;;;;;;;;;;;;;13.53;35.41;102475.54;107404;1256;60896;-87
2023/05/07 10:19:17;;;;;;;;;;;;;;;13.52;35.21;102478.85;107073;1257;124753;-86
2023/05/07 10:21:46;;;;;;;;;;;;;;;13.52;35.01;102478.70;107170;1256;67567;-85
2023/05/07 10:24:19;;;;;;;;;;;;;;;13.55;35.07;102478.65;107249;1259;124375;-83
2023/05/07 10:26:47;;;;;;;;;;;;;;;13.60;35.26;102477.60;107073;1261;63091;-84
2023/05/07 10:29:32;;;;;;;;;;;;;;;13.65;35.00;102474.23;107285;1259;125252;-84
2023/05/07 10:32:11;;;;;;;;;;;;;;;13.70;35.04;102475.55;107652;1257;76678;-83
2023/05/07 10:34:42;;;;;;;;;;;;;;;13.72;35.19;102477.01;107430;1256;67611;-83
2023/05/07 10:37:10;;;;;;;;;;;;;;;13.69;35.33;102467.55;107051;1256;125254;-84
2023/05/07 10:39:43;;;;;;;;;;;;;;;13.69;35.22;102472.65;107306;1256;62100;-85
2023/05/07 10:42:10;;;;;;;;;;;;;;;13.65;35.24;102466.16;107082;1261;124638;-84
2023/05/07 10:44:37;;;;;;;;;;;;;;;13.66;35.27;102465.33;107290;1256;75186;-84
2023/05/07 10:47:20;;;;;;;;;;;;;;;13.67;35.19;102464.82;107376;1256;67093;-85
2023/05/07 10:50:03;;;;;;;;;;;;;;;13.71;35.16;102469.77;107467;1260;71536;-84
2023/05/07 10:52:30;;;;;;;;;;;;;;;13.67;35.15;102473.12;108832;1259;59819;-85
2023/05/07 10:55:24;;;;;;;;;;;;;;;13.58;35.12;102466.58;107109;1259;124973;-85
2023/05/07 10:57:52;;;;;;;;;;;;;;;13.46;35.17;102463.25;107092;1257;73907;-86
2023/05/07 11:00:29;;;;;;;;;;;;;;;13.45;35.34;102464.83;107339;1258;126047;-84
2023/05/07 11:02:59;;;;;;;;;;;;;;;13.48;35.24;102462.65;107520;1261;71086;-86
2023/05/07 11:05:29;;;;;;;;;;;;;;;13.54;35.28;102464.46;107146;1258;124557;-86
2023/05/07 11:07:57;;;;;;;;;;;;;;;13.59;35.06;102465.22;107228;1256;62880;-84
2023/05/07 11:10:46;;;;;;;;;;;;;;;13.60;35.10;102466.66;107178;1256;76445;-85
2023/05/07 11:13:39;;;;;;;;;;;;;;;13.59;35.10;102467.35;107074;1257;124573;-86
2023/05/07 11:16:29;;;;;;;;;;;;;;;13.55;35.13;102466.63;107304;1256;72578;-86
2023/05/07 11:18:56;;;;;;;;;;;;;;;13.49;35.17;102475.55;107035;1256;124887;-84
2023/05/07 11:21:35;;;;;;;;;;;;;;;13.44;35.25;102477.80;107147;1259;62079;-85
2023/05/07 11:24:16;;;;;;;;;;;;;;;13.43;35.43;102484.13;107151;1257;125229;-87
2023/05/07 11:26:47;;;;;;;;;;;;;;;13.44;35.09;102481.69;107569;1256;66210;-84
2023/05/07 11:29:15;;;;;;;;;;;;;;;13.40;35.17;102483.86;107514;1257;72815;-84
2023/05/07 11:31:42;;;;;;;;;;;;;;;13.36;35.29;102485.43;107121;1258;124670;-83
2023/05/07 11:34:09;;;;;;;;;;;;;;;13.36;35.57;102491.96;107240;1263;61886;-83
2023/05/07 11:36:41;;;;;;;;;;;;;;;13.33;35.66;102492.70;107596;1256;125484;-82
2023/05/07 11:39:24;;;;;;;;;;;;;;;13.34;35.68;102490.13;107838;1259;65346;-82
2023/05/07 11:41:52;;;;;;;;;;;;;;;13.37;35.79;102489.02;107297;1259;124808;-84
2023/05/07 11:44:22;;;;;;;;;;;;;;;13.41;35.81;102495.16;107494;1256;60071;-82
2023/05/07 11:46:48;;;;;;;;;;;;;;;13.41;35.49;102500.27;107439;1256;61835;-82
2023/05/07 11:49:18;;;;;;;;;;;;;;;13.33;35.22;102488.86;106919;1256;125079;-85
2023/05/07 11:51:46;;;;;;;;;;;;;;;13.31;35.47;102492.80;107200;1257;64850;-82
2023/05/07 11:54:15;;;;;;;;;;;;;;;13.35;35.31;102494.08;107190;1256;124806;-84
2023/05/07 11:56:42;;;;;;;;;;;;;;;13.32;35.27;102491.64;107084;1262;60655;-84
2023/05/07 11:59:09;;;;;;;;;;;;;;;13.30;35.46;102483.23;107298;1259;62759;-84
2023/05/07 12:01:42;;;;;;;;;;;;;;;13.31;35.43;102490.18;107472;1263;124748;-84
2023/05/07 12:04:09;;;;;;;;;;;;;;;13.27;35.29;102491.55;107949;1257;68061;-84
2023/05/07 12:06:38;;;;;;;;;;;;;;;13.24;35.51;102492.50;107658;1256;125023;-83
2023/05/07 12:09:11;;;;;;;;;;;;;;;13.23;35.55;102494.26;107540;1259;63033;-82
2023/05/07 12:11:39;;;;;;;;;;;;;;;13.25;35.31;102494.10;107566;1259;124846;-83
2023/05/07 12:14:06;;;;;;;;;;;;;;;13.30;35.41;102492.77;107440;1257;75591;-84
2023/05/07 12:16:33;;;;;;;;;;;;;;;13.35;35.27;102494.55;107280;1256;284710;-84
2023/05/07 12:19:00;;;;;;;;;;;;;;;13.34;35.19;102491.52;107339;1257;125315;-84
2023/05/07 12:21:29;;;;;;;;;;;;;;;13.33;35.19;102497.84;107382;1257;63423;-84
2023/05/07 12:23:56;;;;;;;;;;;;;;;13.31;35.16;102497.05;107160;1257;125037;-85
2023/05/07 12:26:23;;;;;;;;;;;;;;;13.31;35.18;102500.02;107395;1257;73074;-82
2023/05/07 12:28:50;;;;;;;;;;;;;;;13.35;35.18;102501.29;107787;1261;67102;-81
2023/05/07 12:31:17;;;;;;;;;;;;;;;13.43;35.34;102500.36;108528;1258;124518;-81
2023/05/07 12:33:45;;;;;;;;;;;;;;;13.50;35.22;102501.89;108800;1264;60055;-82